sensor_id;sensor_type;location;lat;lon;timestamp;P1;durP1;ratioP1;P2;durP2;ratioP2
23304;SDS011;11821;51.456;8.844;2023-02-28T00:00:30;6.45;;;3.15;;
23304;SDS011;11821;51.456;8.844;2023-02-28T00:02:56;6.82;;;3.92;;
23304;SDS011;11821;51.456;8.844;2023-02-28T00:05:24;3.83;;;2.58;;
23304;SDS011;11821;51.456;8.844;2023-02-28T00:07:50;5.38;;;3.08;;
23304;SDS011;11821;51.456;8.844;2023-02-28T00:10:18;4.20;;;2.97;;
23304;SDS011;11821;51.456;8.844;2023-02-28T00:12:46;6.57;;;3.15;;
23304;SDS011;11821;51.456;8.844;2023-02-28T00:15:13;5.10;;;2.90;;
23304;SDS011;11821;51.456;8.844;2023-02-28T00:17:39;4.10;;;2.78;;
23304;SDS011;11821;51.456;8.844;2023-02-28T00:20:06;4.07;;;2.88;;
23304;SDS011;11821;51.456;8.844;2023-02-28T00:22:37;5.13;;;3.40;;
23304;SDS011;11821;51.456;8.844;2023-02-28T00:25:04;7.00;;;3.35;;
23304;SDS011;11821;51.456;8.844;2023-02-28T00:27:32;8.43;;;5.30;;
23304;SDS011;11821;51.456;8.844;2023-02-28T00:29:59;18.85;;;9.10;;
23304;SDS011;11821;51.456;8.844;2023-02-28T00:32:26;8.93;;;5.57;;
23304;SDS011;11821;51.456;8.844;2023-02-28T00:34:52;9.95;;;5.25;;
23304;SDS011;11821;51.456;8.844;2023-02-28T00:37:19;9.57;;;5.95;;
23304;SDS011;11821;51.456;8.844;2023-02-28T00:39:45;6.95;;;4.63;;
23304;SDS011;11821;51.456;8.844;2023-02-28T00:42:12;8.10;;;4.97;;
23304;SDS011;11821;51.456;8.844;2023-02-28T00:44:38;8.40;;;5.22;;
23304;SDS011;11821;51.456;8.844;2023-02-28T00:47:04;8.80;;;5.63;;
23304;SDS011;11821;51.456;8.844;2023-02-28T00:49:31;6.95;;;4.82;;
23304;SDS011;11821;51.456;8.844;2023-02-28T00:51:57;6.05;;;3.85;;
23304;SDS011;11821;51.456;8.844;2023-02-28T00:54:25;7.90;;;4.05;;
23304;SDS011;11821;51.456;8.844;2023-02-28T00:56:52;7.55;;;3.35;;
23304;SDS011;11821;51.456;8.844;2023-02-28T00:59:18;4.90;;;3.35;;
23304;SDS011;11821;51.456;8.844;2023-02-28T01:01:45;5.13;;;2.83;;
23304;SDS011;11821;51.456;8.844;2023-02-28T01:04:12;5.50;;;3.20;;
23304;SDS011;11821;51.456;8.844;2023-02-28T01:06:38;4.85;;;3.00;;
23304;SDS011;11821;51.456;8.844;2023-02-28T01:09:05;6.10;;;2.80;;
23304;SDS011;11821;51.456;8.844;2023-02-28T01:11:32;4.53;;;3.03;;
23304;SDS011;11821;51.456;8.844;2023-02-28T01:13:59;2.50;;;2.22;;
23304;SDS011;11821;51.456;8.844;2023-02-28T01:16:26;3.78;;;2.60;;
23304;SDS011;11821;51.456;8.844;2023-02-28T01:18:52;4.30;;;2.70;;
23304;SDS011;11821;51.456;8.844;2023-02-28T01:21:19;2.88;;;2.28;;
23304;SDS011;11821;51.456;8.844;2023-02-28T01:23:46;3.10;;;2.45;;
23304;SDS011;11821;51.456;8.844;2023-02-28T01:26:14;4.43;;;2.83;;
23304;SDS011;11821;51.456;8.844;2023-02-28T01:28:41;5.97;;;2.97;;
23304;SDS011;11821;51.456;8.844;2023-02-28T01:31:08;7.22;;;2.90;;
23304;SDS011;11821;51.456;8.844;2023-02-28T01:33:36;5.72;;;3.38;;
23304;SDS011;11821;51.456;8.844;2023-02-28T01:36:04;8.80;;;3.85;;
23304;SDS011;11821;51.456;8.844;2023-02-28T01:38:31;4.85;;;2.90;;
23304;SDS011;11821;51.456;8.844;2023-02-28T01:40:57;5.15;;;2.53;;
23304;SDS011;11821;51.456;8.844;2023-02-28T01:43:31;6.50;;;2.95;;
23304;SDS011;11821;51.456;8.844;2023-02-28T01:45:58;4.80;;;2.25;;
23304;SDS011;11821;51.456;8.844;2023-02-28T01:48:29;4.72;;;2.67;;
23304;SDS011;11821;51.456;8.844;2023-02-28T01:53:27;3.75;;;1.77;;
23304;SDS011;11821;51.456;8.844;2023-02-28T01:55:56;3.50;;;2.28;;
23304;SDS011;11821;51.456;8.844;2023-02-28T01:58:23;4.72;;;2.47;;
23304;SDS011;11821;51.456;8.844;2023-02-28T02:00:49;9.98;;;4.63;;
23304;SDS011;11821;51.456;8.844;2023-02-28T02:03:17;3.95;;;2.28;;
23304;SDS011;11821;51.456;8.844;2023-02-28T02:05:44;3.60;;;2.00;;
23304;SDS011;11821;51.456;8.844;2023-02-28T02:08:16;2.83;;;2.00;;
23304;SDS011;11821;51.456;8.844;2023-02-28T02:10:44;5.53;;;2.00;;
23304;SDS011;11821;51.456;8.844;2023-02-28T02:16:10;3.40;;;2.10;;
23304;SDS011;11821;51.456;8.844;2023-02-28T02:18:47;6.65;;;3.35;;
23304;SDS011;11821;51.456;8.844;2023-02-28T02:26:52;8.75;;;4.70;;
23304;SDS011;11821;51.456;8.844;2023-02-28T02:29:36;10.32;;;5.78;;
23304;SDS011;11821;51.456;8.844;2023-02-28T02:34:40;10.13;;;5.95;;
23304;SDS011;11821;51.456;8.844;2023-02-28T02:40:04;11.13;;;6.05;;
23304;SDS011;11821;51.456;8.844;2023-02-28T02:42:39;5.38;;;3.05;;
23304;SDS011;11821;51.456;8.844;2023-02-28T02:45:10;3.22;;;2.20;;
23304;SDS011;11821;51.456;8.844;2023-02-28T02:47:38;3.72;;;2.40;;
23304;SDS011;11821;51.456;8.844;2023-02-28T02:50:06;4.82;;;2.55;;
23304;SDS011;11821;51.456;8.844;2023-02-28T02:52:37;4.13;;;2.30;;
23304;SDS011;11821;51.456;8.844;2023-02-28T02:57:33;3.10;;;2.08;;
23304;SDS011;11821;51.456;8.844;2023-02-28T03:00:02;2.97;;;2.42;;
23304;SDS011;11821;51.456;8.844;2023-02-28T03:02:29;5.03;;;2.22;;
23304;SDS011;11821;51.456;8.844;2023-02-28T03:05:00;2.60;;;1.80;;
23304;SDS011;11821;51.456;8.844;2023-02-28T03:07:27;8.85;;;3.65;;
23304;SDS011;11821;51.456;8.844;2023-02-28T03:09:54;6.03;;;3.40;;
23304;SDS011;11821;51.456;8.844;2023-02-28T03:12:21;3.97;;;2.15;;
23304;SDS011;11821;51.456;8.844;2023-02-28T03:19:55;7.20;;;3.05;;
23304;SDS011;11821;51.456;8.844;2023-02-28T03:27:39;3.75;;;2.25;;
23304;SDS011;11821;51.456;8.844;2023-02-28T03:32:58;3.00;;;2.20;;
23304;SDS011;11821;51.456;8.844;2023-02-28T03:35:26;5.10;;;2.65;;
23304;SDS011;11821;51.456;8.844;2023-02-28T03:37:56;13.65;;;8.35;;
23304;SDS011;11821;51.456;8.844;2023-02-28T03:40:25;3.80;;;2.85;;
23304;SDS011;11821;51.456;8.844;2023-02-28T03:42:56;3.92;;;2.00;;
23304;SDS011;11821;51.456;8.844;2023-02-28T03:45:25;3.17;;;1.98;;
23304;SDS011;11821;51.456;8.844;2023-02-28T03:50:23;4.32;;;2.00;;
23304;SDS011;11821;51.456;8.844;2023-02-28T03:52:53;5.38;;;2.03;;
23304;SDS011;11821;51.456;8.844;2023-02-28T03:55:28;4.88;;;1.92;;
23304;SDS011;11821;51.456;8.844;2023-02-28T03:58:01;3.40;;;2.03;;
23304;SDS011;11821;51.456;8.844;2023-02-28T04:00:37;3.15;;;1.90;;
23304;SDS011;11821;51.456;8.844;2023-02-28T04:03:04;3.08;;;2.10;;
23304;SDS011;11821;51.456;8.844;2023-02-28T04:05:31;4.38;;;1.60;;
23304;SDS011;11821;51.456;8.844;2023-02-28T04:08:07;3.35;;;1.83;;
23304;SDS011;11821;51.456;8.844;2023-02-28T04:10:33;2.95;;;1.80;;
23304;SDS011;11821;51.456;8.844;2023-02-28T04:13:00;6.07;;;2.13;;
23304;SDS011;11821;51.456;8.844;2023-02-28T04:15:26;3.88;;;2.13;;
23304;SDS011;11821;51.456;8.844;2023-02-28T04:17:53;2.40;;;1.98;;
23304;SDS011;11821;51.456;8.844;2023-02-28T04:20:19;3.22;;;2.10;;
23304;SDS011;11821;51.456;8.844;2023-02-28T04:22:46;2.75;;;1.85;;
23304;SDS011;11821;51.456;8.844;2023-02-28T04:25:12;3.03;;;2.25;;
23304;SDS011;11821;51.456;8.844;2023-02-28T04:27:38;3.50;;;2.50;;
23304;SDS011;11821;51.456;8.844;2023-02-28T04:30:05;3.28;;;2.38;;
23304;SDS011;11821;51.456;8.844;2023-02-28T04:32:32;4.93;;;3.10;;
23304;SDS011;11821;51.456;8.844;2023-02-28T04:34:58;8.95;;;4.85;;
23304;SDS011;11821;51.456;8.844;2023-02-28T04:37:24;5.50;;;3.33;;
23304;SDS011;11821;51.456;8.844;2023-02-28T04:39:54;5.78;;;3.40;;
23304;SDS011;11821;51.456;8.844;2023-02-28T04:42:20;7.53;;;3.67;;
23304;SDS011;11821;51.456;8.844;2023-02-28T04:44:47;3.78;;;2.63;;
23304;SDS011;11821;51.456;8.844;2023-02-28T04:47:13;2.15;;;1.70;;
23304;SDS011;11821;51.456;8.844;2023-02-28T04:49:40;3.33;;;2.42;;
23304;SDS011;11821;51.456;8.844;2023-02-28T04:52:06;2.90;;;1.92;;
23304;SDS011;11821;51.456;8.844;2023-02-28T04:54:33;4.05;;;2.60;;
23304;SDS011;11821;51.456;8.844;2023-02-28T04:57:00;3.05;;;2.38;;
23304;SDS011;11821;51.456;8.844;2023-02-28T04:59:27;3.83;;;2.45;;
23304;SDS011;11821;51.456;8.844;2023-02-28T05:01:53;3.80;;;2.30;;
23304;SDS011;11821;51.456;8.844;2023-02-28T05:04:19;5.88;;;2.50;;
23304;SDS011;11821;51.456;8.844;2023-02-28T05:06:46;3.50;;;2.45;;
23304;SDS011;11821;51.456;8.844;2023-02-28T05:09:12;5.82;;;3.13;;
23304;SDS011;11821;51.456;8.844;2023-02-28T05:11:39;6.22;;;2.85;;
23304;SDS011;11821;51.456;8.844;2023-02-28T05:14:06;3.05;;;2.22;;
23304;SDS011;11821;51.456;8.844;2023-02-28T05:16:33;3.80;;;1.70;;
23304;SDS011;11821;51.456;8.844;2023-02-28T05:18:59;4.22;;;2.17;;
23304;SDS011;11821;51.456;8.844;2023-02-28T05:21:27;4.43;;;2.22;;
23304;SDS011;11821;51.456;8.844;2023-02-28T05:23:55;5.18;;;2.47;;
23304;SDS011;11821;51.456;8.844;2023-02-28T05:26:21;4.53;;;2.28;;
23304;SDS011;11821;51.456;8.844;2023-02-28T05:28:48;4.20;;;2.72;;
23304;SDS011;11821;51.456;8.844;2023-02-28T05:31:14;7.07;;;3.63;;
23304;SDS011;11821;51.456;8.844;2023-02-28T05:33:41;6.85;;;3.05;;
23304;SDS011;11821;51.456;8.844;2023-02-28T05:36:08;10.43;;;3.85;;
23304;SDS011;11821;51.456;8.844;2023-02-28T05:38:34;5.10;;;3.22;;
23304;SDS011;11821;51.456;8.844;2023-02-28T05:41:04;4.68;;;3.25;;
23304;SDS011;11821;51.456;8.844;2023-02-28T05:43:30;6.10;;;3.20;;
23304;SDS011;11821;51.456;8.844;2023-02-28T05:45:57;4.60;;;2.65;;
23304;SDS011;11821;51.456;8.844;2023-02-28T05:48:23;5.78;;;2.42;;
23304;SDS011;11821;51.456;8.844;2023-02-28T05:50:51;8.25;;;2.72;;
23304;SDS011;11821;51.456;8.844;2023-02-28T05:53:17;5.57;;;2.20;;
23304;SDS011;11821;51.456;8.844;2023-02-28T05:55:44;4.78;;;2.35;;
23304;SDS011;11821;51.456;8.844;2023-02-28T05:58:10;4.68;;;2.55;;
23304;SDS011;11821;51.456;8.844;2023-02-28T06:00:36;4.90;;;2.55;;
23304;SDS011;11821;51.456;8.844;2023-02-28T06:03:03;3.90;;;2.58;;
23304;SDS011;11821;51.456;8.844;2023-02-28T06:05:29;4.70;;;2.45;;
23304;SDS011;11821;51.456;8.844;2023-02-28T06:07:56;4.60;;;2.25;;
23304;SDS011;11821;51.456;8.844;2023-02-28T06:10:22;4.57;;;1.92;;
23304;SDS011;11821;51.456;8.844;2023-02-28T06:12:48;3.20;;;2.13;;
23304;SDS011;11821;51.456;8.844;2023-02-28T06:15:15;3.70;;;2.30;;
23304;SDS011;11821;51.456;8.844;2023-02-28T06:17:42;2.58;;;1.90;;
23304;SDS011;11821;51.456;8.844;2023-02-28T06:20:09;4.90;;;2.50;;
23304;SDS011;11821;51.456;8.844;2023-02-28T06:22:38;3.17;;;2.05;;
23304;SDS011;11821;51.456;8.844;2023-02-28T06:25:05;4.55;;;2.83;;
23304;SDS011;11821;51.456;8.844;2023-02-28T06:27:32;4.10;;;2.65;;
23304;SDS011;11821;51.456;8.844;2023-02-28T06:29:59;6.75;;;3.17;;
23304;SDS011;11821;51.456;8.844;2023-02-28T06:32:25;6.75;;;2.97;;
23304;SDS011;11821;51.456;8.844;2023-02-28T06:34:52;5.10;;;3.00;;
23304;SDS011;11821;51.456;8.844;2023-02-28T06:37:18;4.63;;;2.35;;
23304;SDS011;11821;51.456;8.844;2023-02-28T06:39:45;3.33;;;2.70;;
23304;SDS011;11821;51.456;8.844;2023-02-28T06:42:11;3.50;;;2.58;;
23304;SDS011;11821;51.456;8.844;2023-02-28T06:44:38;3.55;;;2.08;;
23304;SDS011;11821;51.456;8.844;2023-02-28T06:47:05;2.63;;;2.20;;
23304;SDS011;11821;51.456;8.844;2023-02-28T06:49:32;3.53;;;2.47;;
23304;SDS011;11821;51.456;8.844;2023-02-28T06:51:59;2.85;;;2.30;;
23304;SDS011;11821;51.456;8.844;2023-02-28T06:54:25;3.08;;;2.03;;
23304;SDS011;11821;51.456;8.844;2023-02-28T06:56:52;5.68;;;2.20;;
23304;SDS011;11821;51.456;8.844;2023-02-28T06:59:19;3.88;;;2.33;;
23304;SDS011;11821;51.456;8.844;2023-02-28T07:01:46;5.43;;;2.85;;
23304;SDS011;11821;51.456;8.844;2023-02-28T07:04:12;4.85;;;2.83;;
23304;SDS011;11821;51.456;8.844;2023-02-28T07:06:39;6.15;;;3.83;;
23304;SDS011;11821;51.456;8.844;2023-02-28T07:09:05;7.55;;;4.10;;
23304;SDS011;11821;51.456;8.844;2023-02-28T07:11:31;7.72;;;3.72;;
23304;SDS011;11821;51.456;8.844;2023-02-28T07:13:58;7.03;;;4.25;;
23304;SDS011;11821;51.456;8.844;2023-02-28T07:16:25;20.88;;;11.13;;
23304;SDS011;11821;51.456;8.844;2023-02-28T07:18:54;74.93;;;32.90;;
23304;SDS011;11821;51.456;8.844;2023-02-28T07:21:21;90.55;;;42.58;;
23304;SDS011;11821;51.456;8.844;2023-02-28T07:23:48;45.53;;;25.33;;
23304;SDS011;11821;51.456;8.844;2023-02-28T07:26:15;25.52;;;16.90;;
23304;SDS011;11821;51.456;8.844;2023-02-28T07:28:42;22.67;;;13.32;;
23304;SDS011;11821;51.456;8.844;2023-02-28T07:31:10;6.60;;;4.07;;
23304;SDS011;11821;51.456;8.844;2023-02-28T07:33:37;10.60;;;5.63;;
23304;SDS011;11821;51.456;8.844;2023-02-28T07:36:05;4.70;;;3.28;;
23304;SDS011;11821;51.456;8.844;2023-02-28T07:38:35;3.42;;;2.65;;
23304;SDS011;11821;51.456;8.844;2023-02-28T07:41:02;4.50;;;2.10;;
23304;SDS011;11821;51.456;8.844;2023-02-28T07:43:30;3.47;;;2.30;;
23304;SDS011;11821;51.456;8.844;2023-02-28T07:46:04;2.78;;;2.10;;
23304;SDS011;11821;51.456;8.844;2023-02-28T07:48:31;2.20;;;1.70;;
23304;SDS011;11821;51.456;8.844;2023-02-28T07:50:58;2.85;;;1.88;;
23304;SDS011;11821;51.456;8.844;2023-02-28T07:53:25;2.10;;;1.63;;
23304;SDS011;11821;51.456;8.844;2023-02-28T07:55:54;2.70;;;1.98;;
23304;SDS011;11821;51.456;8.844;2023-02-28T07:58:21;2.13;;;1.20;;
23304;SDS011;11821;51.456;8.844;2023-02-28T08:00:47;5.35;;;4.10;;
23304;SDS011;11821;51.456;8.844;2023-02-28T08:03:17;1.20;;;1.05;;
23304;SDS011;11821;51.456;8.844;2023-02-28T08:05:44;3.40;;;1.55;;
23304;SDS011;11821;51.456;8.844;2023-02-28T08:08:10;2.50;;;1.30;;
23304;SDS011;11821;51.456;8.844;2023-02-28T08:10:37;4.38;;;1.92;;
23304;SDS011;11821;51.456;8.844;2023-02-28T08:13:03;2.00;;;1.40;;
23304;SDS011;11821;51.456;8.844;2023-02-28T08:15:29;3.78;;;1.25;;
23304;SDS011;11821;51.456;8.844;2023-02-28T08:17:56;1.73;;;1.10;;
23304;SDS011;11821;51.456;8.844;2023-02-28T08:20:23;1.30;;;1.10;;
23304;SDS011;11821;51.456;8.844;2023-02-28T08:22:50;1.42;;;0.90;;
23304;SDS011;11821;51.456;8.844;2023-02-28T08:25:16;3.60;;;1.75;;
23304;SDS011;11821;51.456;8.844;2023-02-28T08:27:43;4.38;;;2.33;;
23304;SDS011;11821;51.456;8.844;2023-02-28T08:30:10;5.38;;;3.38;;
23304;SDS011;11821;51.456;8.844;2023-02-28T08:32:37;4.13;;;2.85;;
23304;SDS011;11821;51.456;8.844;2023-02-28T08:35:04;6.25;;;3.13;;
23304;SDS011;11821;51.456;8.844;2023-02-28T08:37:31;4.05;;;2.53;;
23304;SDS011;11821;51.456;8.844;2023-02-28T08:39:57;6.43;;;2.33;;
23304;SDS011;11821;51.456;8.844;2023-02-28T08:42:24;1.95;;;1.30;;
23304;SDS011;11821;51.456;8.844;2023-02-28T08:44:50;5.35;;;1.80;;
23304;SDS011;11821;51.456;8.844;2023-02-28T08:47:16;3.35;;;2.15;;
23304;SDS011;11821;51.456;8.844;2023-02-28T08:49:43;2.75;;;2.05;;
23304;SDS011;11821;51.456;8.844;2023-02-28T08:52:09;2.45;;;1.60;;
23304;SDS011;11821;51.456;8.844;2023-02-28T08:54:36;3.85;;;1.60;;
23304;SDS011;11821;51.456;8.844;2023-02-28T08:57:02;1.58;;;1.20;;
23304;SDS011;11821;51.456;8.844;2023-02-28T08:59:29;1.77;;;0.90;;
23304;SDS011;11821;51.456;8.844;2023-02-28T09:01:56;1.63;;;1.25;;
23304;SDS011;11821;51.456;8.844;2023-02-28T09:04:22;2.13;;;1.45;;
23304;SDS011;11821;51.456;8.844;2023-02-28T09:06:48;1.67;;;1.58;;
23304;SDS011;11821;51.456;8.844;2023-02-28T09:09:15;2.92;;;1.60;;
23304;SDS011;11821;51.456;8.844;2023-02-28T09:11:41;3.83;;;1.90;;
23304;SDS011;11821;51.456;8.844;2023-02-28T09:14:08;2.35;;;2.00;;
23304;SDS011;11821;51.456;8.844;2023-02-28T09:16:34;4.20;;;2.80;;
23304;SDS011;11821;51.456;8.844;2023-02-28T09:19:01;2.75;;;2.00;;
23304;SDS011;11821;51.456;8.844;2023-02-28T09:21:27;1.95;;;1.45;;
23304;SDS011;11821;51.456;8.844;2023-02-28T09:23:54;3.03;;;1.27;;
23304;SDS011;11821;51.456;8.844;2023-02-28T09:26:22;1.48;;;1.25;;
23304;SDS011;11821;51.456;8.844;2023-02-28T09:28:49;2.28;;;1.35;;
23304;SDS011;11821;51.456;8.844;2023-02-28T09:31:16;2.40;;;1.10;;
23304;SDS011;11821;51.456;8.844;2023-02-28T09:33:46;2.20;;;1.13;;
23304;SDS011;11821;51.456;8.844;2023-02-28T09:36:13;1.40;;;1.00;;
23304;SDS011;11821;51.456;8.844;2023-02-28T09:38:39;1.42;;;1.33;;
23304;SDS011;11821;51.456;8.844;2023-02-28T09:41:13;1.65;;;1.30;;
23304;SDS011;11821;51.456;8.844;2023-02-28T09:43:42;2.35;;;1.65;;
23304;SDS011;11821;51.456;8.844;2023-02-28T09:46:16;1.25;;;0.95;;
23304;SDS011;11821;51.456;8.844;2023-02-28T09:48:46;0.98;;;0.80;;
23304;SDS011;11821;51.456;8.844;2023-02-28T09:53:43;2.03;;;1.30;;
23304;SDS011;11821;51.456;8.844;2023-02-28T09:56:19;2.13;;;1.08;;
23304;SDS011;11821;51.456;8.844;2023-02-28T09:58:53;1.95;;;1.20;;
23304;SDS011;11821;51.456;8.844;2023-02-28T10:03:57;1.73;;;1.05;;
23304;SDS011;11821;51.456;8.844;2023-02-28T10:07:11;1.00;;;0.90;;
23304;SDS011;11821;51.456;8.844;2023-02-28T10:09:22;1.83;;;1.65;;
23304;SDS011;11821;51.456;8.844;2023-02-28T10:11:53;1.45;;;1.08;;
23304;SDS011;11821;51.456;8.844;2023-02-28T10:14:30;1.42;;;1.23;;
23304;SDS011;11821;51.456;8.844;2023-02-28T10:17:04;1.23;;;1.13;;
23304;SDS011;11821;51.456;8.844;2023-02-28T10:19:34;3.75;;;2.10;;
23304;SDS011;11821;51.456;8.844;2023-02-28T10:22:11;1.83;;;1.25;;
23304;SDS011;11821;51.456;8.844;2023-02-28T10:24:42;1.95;;;1.25;;
23304;SDS011;11821;51.456;8.844;2023-02-28T10:27:19;4.13;;;1.95;;
23304;SDS011;11821;51.456;8.844;2023-02-28T10:29:50;1.60;;;1.45;;
23304;SDS011;11821;51.456;8.844;2023-02-28T10:32:18;1.45;;;1.20;;
23304;SDS011;11821;51.456;8.844;2023-02-28T10:34:49;1.58;;;1.25;;
23304;SDS011;11821;51.456;8.844;2023-02-28T10:39:43;2.88;;;1.60;;
23304;SDS011;11821;51.456;8.844;2023-02-28T10:42:27;1.45;;;1.10;;
23304;SDS011;11821;51.456;8.844;2023-02-28T10:47:33;1.50;;;1.40;;
23304;SDS011;11821;51.456;8.844;2023-02-28T10:50:02;2.30;;;1.83;;
23304;SDS011;11821;51.456;8.844;2023-02-28T10:52:32;1.98;;;1.33;;
23304;SDS011;11821;51.456;8.844;2023-02-28T10:55:18;1.73;;;1.33;;
23304;SDS011;11821;51.456;8.844;2023-02-28T10:57:46;1.95;;;1.48;;
23304;SDS011;11821;51.456;8.844;2023-02-28T11:00:20;1.63;;;1.27;;
23304;SDS011;11821;51.456;8.844;2023-02-28T11:02:47;2.83;;;1.40;;
23304;SDS011;11821;51.456;8.844;2023-02-28T11:05:30;1.20;;;1.10;;
23304;SDS011;11821;51.456;8.844;2023-02-28T11:08:18;2.35;;;1.40;;
23304;SDS011;11821;51.456;8.844;2023-02-28T11:10:47;3.05;;;1.60;;
23304;SDS011;11821;51.456;8.844;2023-02-28T11:13:18;1.70;;;1.40;;
23304;SDS011;11821;51.456;8.844;2023-02-28T11:15:52;4.88;;;1.30;;
23304;SDS011;11821;51.456;8.844;2023-02-28T11:20:52;2.65;;;1.52;;
23304;SDS011;11821;51.456;8.844;2023-02-28T11:23:20;3.08;;;1.30;;
23304;SDS011;11821;51.456;8.844;2023-02-28T11:25:54;3.15;;;1.60;;
23304;SDS011;11821;51.456;8.844;2023-02-28T11:28:30;2.95;;;1.83;;
23304;SDS011;11821;51.456;8.844;2023-02-28T11:33:28;1.83;;;1.50;;
23304;SDS011;11821;51.456;8.844;2023-02-28T11:36:03;1.83;;;1.70;;
23304;SDS011;11821;51.456;8.844;2023-02-28T11:38:34;3.17;;;1.38;;
23304;SDS011;11821;51.456;8.844;2023-02-28T11:41:11;2.13;;;1.80;;
23304;SDS011;11821;51.456;8.844;2023-02-28T11:53:55;2.20;;;2.00;;
23304;SDS011;11821;51.456;8.844;2023-02-28T11:56:36;1.80;;;1.60;;
23304;SDS011;11821;51.456;8.844;2023-02-28T12:02:02;1.77;;;1.42;;
23304;SDS011;11821;51.456;8.844;2023-02-28T12:12:37;2.70;;;2.13;;
23304;SDS011;11821;51.456;8.844;2023-02-28T12:15:11;2.85;;;2.38;;
23304;SDS011;11821;51.456;8.844;2023-02-28T12:28:12;3.40;;;1.92;;
23304;SDS011;11821;51.456;8.844;2023-02-28T12:31:00;2.83;;;1.73;;
23304;SDS011;11821;51.456;8.844;2023-02-28T12:33:29;3.58;;;2.00;;
23304;SDS011;11821;51.456;8.844;2023-02-28T12:35:58;3.28;;;1.90;;
23304;SDS011;11821;51.456;8.844;2023-02-28T12:38:29;3.40;;;2.03;;
23304;SDS011;11821;51.456;8.844;2023-02-28T12:41:00;2.10;;;1.90;;
23304;SDS011;11821;51.456;8.844;2023-02-28T12:43:31;5.22;;;2.30;;
23304;SDS011;11821;51.456;8.844;2023-02-28T12:46:00;2.75;;;1.95;;
23304;SDS011;11821;51.456;8.844;2023-02-28T12:48:37;2.28;;;1.83;;
23304;SDS011;11821;51.456;8.844;2023-02-28T12:51:05;2.22;;;1.70;;
23304;SDS011;11821;51.456;8.844;2023-02-28T12:56:49;3.92;;;1.92;;
23304;SDS011;11821;51.456;8.844;2023-02-28T12:59:25;3.95;;;2.28;;
23304;SDS011;11821;51.456;8.844;2023-02-28T13:02:00;5.85;;;2.13;;
23304;SDS011;11821;51.456;8.844;2023-02-28T13:06:58;3.65;;;2.22;;
23304;SDS011;11821;51.456;8.844;2023-02-28T13:09:26;2.28;;;2.05;;
23304;SDS011;11821;51.456;8.844;2023-02-28T13:11:54;2.25;;;2.05;;
23304;SDS011;11821;51.456;8.844;2023-02-28T13:19:26;2.85;;;2.28;;
23304;SDS011;11821;51.456;8.844;2023-02-28T13:21:54;2.10;;;1.85;;
23304;SDS011;11821;51.456;8.844;2023-02-28T13:24:41;3.15;;;2.78;;
23304;SDS011;11821;51.456;8.844;2023-02-28T13:29:36;2.63;;;2.15;;
23304;SDS011;11821;51.456;8.844;2023-02-28T13:47:29;2.95;;;2.42;;
23304;SDS011;11821;51.456;8.844;2023-02-28T13:52:44;2.88;;;2.20;;
23304;SDS011;11821;51.456;8.844;2023-02-28T14:00:20;3.15;;;2.47;;
23304;SDS011;11821;51.456;8.844;2023-02-28T14:05:18;3.33;;;2.53;;
23304;SDS011;11821;51.456;8.844;2023-02-28T14:07:48;2.65;;;2.30;;
23304;SDS011;11821;51.456;8.844;2023-02-28T14:10:21;6.15;;;2.83;;
23304;SDS011;11821;51.456;8.844;2023-02-28T14:13:02;3.33;;;2.80;;
23304;SDS011;11821;51.456;8.844;2023-02-28T14:18:03;3.70;;;3.05;;
23304;SDS011;11821;51.456;8.844;2023-02-28T14:20:32;2.15;;;2.00;;
23304;SDS011;11821;51.456;8.844;2023-02-28T14:25:52;3.42;;;2.45;;
23304;SDS011;11821;51.456;8.844;2023-02-28T14:31:07;3.08;;;2.55;;
23304;SDS011;11821;51.456;8.844;2023-02-28T14:36:10;7.72;;;6.97;;
23304;SDS011;11821;51.456;8.844;2023-02-28T14:38:50;7.65;;;5.30;;
23304;SDS011;11821;51.456;8.844;2023-02-28T14:41:35;7.25;;;6.63;;
23304;SDS011;11821;51.456;8.844;2023-02-28T14:44:14;3.33;;;2.50;;
23304;SDS011;11821;51.456;8.844;2023-02-28T14:46:41;2.85;;;2.35;;
23304;SDS011;11821;51.456;8.844;2023-02-28T14:49:13;4.15;;;3.65;;
23304;SDS011;11821;51.456;8.844;2023-02-28T14:51:41;3.35;;;2.97;;
23304;SDS011;11821;51.456;8.844;2023-02-28T14:54:12;2.60;;;2.40;;
23304;SDS011;11821;51.456;8.844;2023-02-28T14:56:39;2.15;;;1.92;;
23304;SDS011;11821;51.456;8.844;2023-02-28T14:59:18;2.60;;;2.40;;
23304;SDS011;11821;51.456;8.844;2023-02-28T15:01:47;3.13;;;2.60;;
23304;SDS011;11821;51.456;8.844;2023-02-28T15:04:18;3.80;;;2.30;;
23304;SDS011;11821;51.456;8.844;2023-02-28T15:06:54;3.50;;;2.53;;
23304;SDS011;11821;51.456;8.844;2023-02-28T15:09:33;4.13;;;2.47;;
23304;SDS011;11821;51.456;8.844;2023-02-28T15:11:59;3.95;;;2.35;;
23304;SDS011;11821;51.456;8.844;2023-02-28T15:14:25;3.50;;;2.50;;
23304;SDS011;11821;51.456;8.844;2023-02-28T15:17:01;3.95;;;2.50;;
23304;SDS011;11821;51.456;8.844;2023-02-28T15:19:34;2.83;;;2.63;;
23304;SDS011;11821;51.456;8.844;2023-02-28T15:22:04;2.90;;;2.33;;
23304;SDS011;11821;51.456;8.844;2023-02-28T15:26:58;2.97;;;2.15;;
23304;SDS011;11821;51.456;8.844;2023-02-28T15:29:26;5.30;;;2.67;;
23304;SDS011;11821;51.456;8.844;2023-02-28T15:32:00;6.70;;;5.97;;
23304;SDS011;11821;51.456;8.844;2023-02-28T15:34:40;3.63;;;2.67;;
23304;SDS011;11821;51.456;8.844;2023-02-28T15:40:44;4.68;;;3.70;;
23304;SDS011;11821;51.456;8.844;2023-02-28T15:43:03;2.15;;;1.92;;
23304;SDS011;11821;51.456;8.844;2023-02-28T15:45:35;3.00;;;2.20;;
23304;SDS011;11821;51.456;8.844;2023-02-28T15:48:14;3.55;;;2.20;;
23304;SDS011;11821;51.456;8.844;2023-02-28T15:50:41;2.67;;;1.92;;
23304;SDS011;11821;51.456;8.844;2023-02-28T15:53:15;4.30;;;2.00;;
23304;SDS011;11821;51.456;8.844;2023-02-28T15:55:42;2.20;;;2.00;;
23304;SDS011;11821;51.456;8.844;2023-02-28T15:58:09;2.45;;;2.25;;
23304;SDS011;11821;51.456;8.844;2023-02-28T16:00:37;3.05;;;2.20;;
23304;SDS011;11821;51.456;8.844;2023-02-28T16:03:22;4.13;;;2.30;;
23304;SDS011;11821;51.456;8.844;2023-02-28T16:06:07;3.28;;;2.50;;
23304;SDS011;11821;51.456;8.844;2023-02-28T16:08:33;2.85;;;2.30;;
23304;SDS011;11821;51.456;8.844;2023-02-28T16:11:00;3.67;;;1.88;;
23304;SDS011;11821;51.456;8.844;2023-02-28T16:13:26;3.55;;;2.35;;
23304;SDS011;11821;51.456;8.844;2023-02-28T16:15:53;2.65;;;2.13;;
23304;SDS011;11821;51.456;8.844;2023-02-28T16:18:19;3.65;;;2.83;;
23304;SDS011;11821;51.456;8.844;2023-02-28T16:20:46;2.97;;;2.25;;
23304;SDS011;11821;51.456;8.844;2023-02-28T16:23:12;2.35;;;2.13;;
23304;SDS011;11821;51.456;8.844;2023-02-28T16:25:39;4.20;;;3.08;;
23304;SDS011;11821;51.456;8.844;2023-02-28T16:28:26;4.93;;;2.58;;
23304;SDS011;11821;51.456;8.844;2023-02-28T16:30:59;2.00;;;1.80;;
23304;SDS011;11821;51.456;8.844;2023-02-28T16:33:25;3.83;;;2.25;;
23304;SDS011;11821;51.456;8.844;2023-02-28T16:35:52;3.60;;;3.00;;
23304;SDS011;11821;51.456;8.844;2023-02-28T16:38:18;3.58;;;2.40;;
23304;SDS011;11821;51.456;8.844;2023-02-28T16:40:45;3.72;;;2.00;;
23304;SDS011;11821;51.456;8.844;2023-02-28T16:43:14;2.65;;;2.15;;
23304;SDS011;11821;51.456;8.844;2023-02-28T16:45:41;2.60;;;2.10;;
23304;SDS011;11821;51.456;8.844;2023-02-28T16:48:10;3.22;;;2.50;;
23304;SDS011;11821;51.456;8.844;2023-02-28T16:50:37;4.40;;;2.78;;
23304;SDS011;11821;51.456;8.844;2023-02-28T16:53:04;3.67;;;2.88;;
23304;SDS011;11821;51.456;8.844;2023-02-28T16:55:30;3.25;;;2.85;;
23304;SDS011;11821;51.456;8.844;2023-02-28T16:57:58;5.18;;;2.67;;
23304;SDS011;11821;51.456;8.844;2023-02-28T17:00:26;3.33;;;2.45;;
23304;SDS011;11821;51.456;8.844;2023-02-28T17:02:53;3.20;;;2.67;;
23304;SDS011;11821;51.456;8.844;2023-02-28T17:05:19;4.40;;;3.08;;
23304;SDS011;11821;51.456;8.844;2023-02-28T17:07:46;7.38;;;4.15;;
23304;SDS011;11821;51.456;8.844;2023-02-28T17:12:42;5.65;;;4.03;;
23304;SDS011;11821;51.456;8.844;2023-02-28T17:15:10;5.43;;;3.33;;
23304;SDS011;11821;51.456;8.844;2023-02-28T17:17:36;6.95;;;3.72;;